sensor_id;sensor_type;location;lat;lon;timestamp;P1;durP1;ratioP1;P2;durP2;ratioP2
59193;SDS011;44967;48.598;15.650;2024-01-07T00:01:15;7.05;;;4.13;;
59193;SDS011;44967;48.598;15.650;2024-01-07T00:03:41;6.78;;;4.20;;
59193;SDS011;44967;48.598;15.650;2024-01-07T00:06:09;7.65;;;4.72;;
59193;SDS011;44967;48.598;15.650;2024-01-07T00:08:35;7.93;;;4.18;;
59193;SDS011;44967;48.598;15.650;2024-01-07T00:11:01;7.47;;;4.47;;
59193;SDS011;44967;48.598;15.650;2024-01-07T00:13:26;9.02;;;4.93;;
59193;SDS011;44967;48.598;15.650;2024-01-07T00:15:52;6.68;;;4.32;;
59193;SDS011;44967;48.598;15.650;2024-01-07T00:18:19;7.15;;;4.65;;
59193;SDS011;44967;48.598;15.650;2024-01-07T00:20:45;4.68;;;3.83;;
59193;SDS011;44967;48.598;15.650;2024-01-07T00:23:10;7.82;;;4.13;;
59193;SDS011;44967;48.598;15.650;2024-01-07T00:25:36;6.05;;;4.53;;
59193;SDS011;44967;48.598;15.650;2024-01-07T00:28:02;7.38;;;5.03;;
59193;SDS011;44967;48.598;15.650;2024-01-07T00:30:28;6.85;;;4.20;;
59193;SDS011;44967;48.598;15.650;2024-01-07T00:32:54;6.45;;;4.13;;
59193;SDS011;44967;48.598;15.650;2024-01-07T00:35:20;6.70;;;4.40;;
59193;SDS011;44967;48.598;15.650;2024-01-07T00:37:46;7.85;;;4.40;;
59193;SDS011;44967;48.598;15.650;2024-01-07T00:40:12;7.10;;;4.78;;
59193;SDS011;44967;48.598;15.650;2024-01-07T00:42:37;5.15;;;4.10;;
59193;SDS011;44967;48.598;15.650;2024-01-07T00:45:03;8.00;;;4.40;;
59193;SDS011;44967;48.598;15.650;2024-01-07T00:47:31;8.38;;;4.75;;
59193;SDS011;44967;48.598;15.650;2024-01-07T00:49:56;6.88;;;4.43;;
59193;SDS011;44967;48.598;15.650;2024-01-07T00:52:22;7.68;;;5.07;;
59193;SDS011;44967;48.598;15.650;2024-01-07T00:54:48;6.00;;;3.97;;
59193;SDS011;44967;48.598;15.650;2024-01-07T00:57:14;8.07;;;4.10;;
59193;SDS011;44967;48.598;15.650;2024-01-07T00:59:40;6.03;;;3.63;;
59193;SDS011;44967;48.598;15.650;2024-01-07T01:02:05;6.78;;;3.92;;
59193;SDS011;44967;48.598;15.650;2024-01-07T01:04:31;5.78;;;4.03;;
59193;SDS011;44967;48.598;15.650;2024-01-07T01:06:56;6.88;;;3.97;;
59193;SDS011;44967;48.598;15.650;2024-01-07T01:09:22;6.85;;;4.38;;
59193;SDS011;44967;48.598;15.650;2024-01-07T01:11:48;6.85;;;4.38;;
59193;SDS011;44967;48.598;15.650;2024-01-07T01:14:15;6.60;;;4.32;;
59193;SDS011;44967;48.598;15.650;2024-01-07T01:16:41;5.80;;;4.50;;
59193;SDS011;44967;48.598;15.650;2024-01-07T01:19:07;7.38;;;4.25;;
59193;SDS011;44967;48.598;15.650;2024-01-07T01:21:34;8.65;;;4.50;;
59193;SDS011;44967;48.598;15.650;2024-01-07T01:23:59;6.75;;;4.45;;
59193;SDS011;44967;48.598;15.650;2024-01-07T01:26:25;8.18;;;4.32;;
59193;SDS011;44967;48.598;15.650;2024-01-07T01:28:50;8.18;;;4.95;;
59193;SDS011;44967;48.598;15.650;2024-01-07T01:31:16;6.15;;;4.43;;
59193;SDS011;44967;48.598;15.650;2024-01-07T01:33:42;5.80;;;4.57;;
59193;SDS011;44967;48.598;15.650;2024-01-07T01:36:09;8.73;;;5.22;;
59193;SDS011;44967;48.598;15.650;2024-01-07T01:38:35;6.95;;;4.25;;
59193;SDS011;44967;48.598;15.650;2024-01-07T01:41:00;7.13;;;5.57;;
59193;SDS011;44967;48.598;15.650;2024-01-07T01:43:26;7.78;;;5.22;;
59193;SDS011;44967;48.598;15.650;2024-01-07T01:45:54;7.03;;;4.68;;
59193;SDS011;44967;48.598;15.650;2024-01-07T01:48:22;7.88;;;4.80;;
59193;SDS011;44967;48.598;15.650;2024-01-07T01:50:48;9.48;;;5.65;;
59193;SDS011;44967;48.598;15.650;2024-01-07T01:53:15;8.20;;;5.07;;
59193;SDS011;44967;48.598;15.650;2024-01-07T01:55:42;6.70;;;4.47;;
59193;SDS011;44967;48.598;15.650;2024-01-07T01:58:11;8.18;;;5.20;;
59193;SDS011;44967;48.598;15.650;2024-01-07T02:00:39;8.88;;;5.63;;
59193;SDS011;44967;48.598;15.650;2024-01-07T02:03:05;7.35;;;5.18;;
59193;SDS011;44967;48.598;15.650;2024-01-07T02:05:31;6.82;;;4.57;;
59193;SDS011;44967;48.598;15.650;2024-01-07T02:07:57;6.95;;;4.68;;
59193;SDS011;44967;48.598;15.650;2024-01-07T02:10:23;8.25;;;5.15;;
59193;SDS011;44967;48.598;15.650;2024-01-07T02:12:49;7.38;;;4.93;;
59193;SDS011;44967;48.598;15.650;2024-01-07T02:15:15;7.30;;;4.68;;
59193;SDS011;44967;48.598;15.650;2024-01-07T02:17:41;8.15;;;5.28;;
59193;SDS011;44967;48.598;15.650;2024-01-07T02:20:07;8.35;;;5.65;;
59193;SDS011;44967;48.598;15.650;2024-01-07T02:22:33;8.23;;;5.10;;
59193;SDS011;44967;48.598;15.650;2024-01-07T02:24:59;9.23;;;5.35;;
59193;SDS011;44967;48.598;15.650;2024-01-07T02:27:24;7.55;;;4.95;;
59193;SDS011;44967;48.598;15.650;2024-01-07T02:29:50;8.65;;;5.28;;
59193;SDS011;44967;48.598;15.650;2024-01-07T02:32:16;7.00;;;4.93;;
59193;SDS011;44967;48.598;15.650;2024-01-07T02:34:41;7.28;;;4.90;;
59193;SDS011;44967;48.598;15.650;2024-01-07T02:37:07;6.75;;;4.18;;
59193;SDS011;44967;48.598;15.650;2024-01-07T02:39:32;7.38;;;4.78;;
59193;SDS011;44967;48.598;15.650;2024-01-07T02:41:58;7.75;;;5.05;;
59193;SDS011;44967;48.598;15.650;2024-01-07T02:44:24;9.57;;;5.47;;
59193;SDS011;44967;48.598;15.650;2024-01-07T02:46:50;7.05;;;5.05;;
59193;SDS011;44967;48.598;15.650;2024-01-07T02:49:15;6.97;;;4.90;;
59193;SDS011;44967;48.598;15.650;2024-01-07T02:51:41;7.97;;;5.15;;
59193;SDS011;44967;48.598;15.650;2024-01-07T02:54:08;7.70;;;5.00;;
59193;SDS011;44967;48.598;15.650;2024-01-07T02:56:33;9.13;;;4.95;;
59193;SDS011;44967;48.598;15.650;2024-01-07T02:58:59;6.45;;;4.82;;
59193;SDS011;44967;48.598;15.650;2024-01-07T03:01:25;12.02;;;5.97;;
59193;SDS011;44967;48.598;15.650;2024-01-07T03:03:51;7.38;;;4.68;;
59193;SDS011;44967;48.598;15.650;2024-01-07T03:06:17;7.22;;;4.70;;
59193;SDS011;44967;48.598;15.650;2024-01-07T03:08:42;8.25;;;5.35;;
59193;SDS011;44967;48.598;15.650;2024-01-07T03:11:08;9.13;;;5.55;;
59193;SDS011;44967;48.598;15.650;2024-01-07T03:13:34;8.00;;;4.97;;
59193;SDS011;44967;48.598;15.650;2024-01-07T03:16:00;7.85;;;4.55;;
59193;SDS011;44967;48.598;15.650;2024-01-07T03:18:26;7.20;;;5.07;;
59193;SDS011;44967;48.598;15.650;2024-01-07T03:20:54;8.32;;;5.40;;
59193;SDS011;44967;48.598;15.650;2024-01-07T03:23:19;6.72;;;4.53;;
59193;SDS011;44967;48.598;15.650;2024-01-07T03:25:45;7.38;;;5.50;;
59193;SDS011;44967;48.598;15.650;2024-01-07T03:28:11;7.05;;;4.47;;
59193;SDS011;44967;48.598;15.650;2024-01-07T03:30:37;8.18;;;5.45;;
59193;SDS011;44967;48.598;15.650;2024-01-07T03:33:03;8.85;;;5.45;;
59193;SDS011;44967;48.598;15.650;2024-01-07T03:35:30;9.90;;;4.70;;
59193;SDS011;44967;48.598;15.650;2024-01-07T03:37:55;7.47;;;5.07;;
59193;SDS011;44967;48.598;15.650;2024-01-07T03:40:21;6.70;;;5.07;;
59193;SDS011;44967;48.598;15.650;2024-01-07T03:42:47;9.32;;;5.72;;
59193;SDS011;44967;48.598;15.650;2024-01-07T03:45:13;9.57;;;5.88;;
59193;SDS011;44967;48.598;15.650;2024-01-07T03:47:39;7.88;;;5.75;;
59193;SDS011;44967;48.598;15.650;2024-01-07T03:50:05;10.00;;;5.72;;
59193;SDS011;44967;48.598;15.650;2024-01-07T03:52:32;11.65;;;7.30;;
59193;SDS011;44967;48.598;15.650;2024-01-07T03:54:59;10.55;;;6.07;;
59193;SDS011;44967;48.598;15.650;2024-01-07T03:57:25;10.65;;;5.93;;
59193;SDS011;44967;48.598;15.650;2024-01-07T03:59:50;8.80;;;6.05;;
59193;SDS011;44967;48.598;15.650;2024-01-07T04:02:16;10.40;;;6.30;;
59193;SDS011;44967;48.598;15.650;2024-01-07T04:04:42;12.25;;;7.30;;
59193;SDS011;44967;48.598;15.650;2024-01-07T04:07:08;13.35;;;7.35;;
59193;SDS011;44967;48.598;15.650;2024-01-07T04:09:33;11.85;;;7.10;;
59193;SDS011;44967;48.598;15.650;2024-01-07T04:11:59;12.18;;;7.32;;
59193;SDS011;44967;48.598;15.650;2024-01-07T04:14:25;9.35;;;6.22;;
59193;SDS011;44967;48.598;15.650;2024-01-07T04:16:52;12.10;;;7.13;;
59193;SDS011;44967;48.598;15.650;2024-01-07T04:19:18;11.48;;;6.30;;
59193;SDS011;44967;48.598;15.650;2024-01-07T04:21:47;10.70;;;6.53;;
59193;SDS011;44967;48.598;15.650;2024-01-07T04:24:13;11.63;;;7.03;;
59193;SDS011;44967;48.598;15.650;2024-01-07T04:26:39;10.82;;;6.70;;
59193;SDS011;44967;48.598;15.650;2024-01-07T04:29:04;10.77;;;7.10;;
59193;SDS011;44967;48.598;15.650;2024-01-07T04:31:31;12.52;;;7.40;;
59193;SDS011;44967;48.598;15.650;2024-01-07T04:33:57;11.85;;;7.20;;
59193;SDS011;44967;48.598;15.650;2024-01-07T04:36:23;11.32;;;6.72;;
59193;SDS011;44967;48.598;15.650;2024-01-07T04:38:49;10.35;;;6.97;;
59193;SDS011;44967;48.598;15.650;2024-01-07T04:41:14;10.80;;;6.82;;
59193;SDS011;44967;48.598;15.650;2024-01-07T04:43:42;10.02;;;6.65;;
59193;SDS011;44967;48.598;15.650;2024-01-07T04:46:08;10.50;;;6.32;;
59193;SDS011;44967;48.598;15.650;2024-01-07T04:48:36;9.10;;;5.85;;
59193;SDS011;44967;48.598;15.650;2024-01-07T04:51:01;11.88;;;6.75;;
59193;SDS011;44967;48.598;15.650;2024-01-07T04:53:27;10.80;;;6.25;;
59193;SDS011;44967;48.598;15.650;2024-01-07T04:55:53;9.73;;;6.45;;
59193;SDS011;44967;48.598;15.650;2024-01-07T04:58:18;9.93;;;6.30;;
59193;SDS011;44967;48.598;15.650;2024-01-07T05:00:44;9.70;;;6.22;;
59193;SDS011;44967;48.598;15.650;2024-01-07T05:03:10;8.13;;;5.68;;
59193;SDS011;44967;48.598;15.650;2024-01-07T05:05:36;9.98;;;6.55;;
59193;SDS011;44967;48.598;15.650;2024-01-07T05:08:03;8.20;;;5.20;;
59193;SDS011;44967;48.598;15.650;2024-01-07T05:10:29;9.48;;;6.22;;
59193;SDS011;44967;48.598;15.650;2024-01-07T05:12:55;9.23;;;5.65;;
59193;SDS011;44967;48.598;15.650;2024-01-07T05:15:20;9.35;;;5.93;;
59193;SDS011;44967;48.598;15.650;2024-01-07T05:17:46;9.20;;;6.25;;
59193;SDS011;44967;48.598;15.650;2024-01-07T05:20:12;10.43;;;5.78;;
59193;SDS011;44967;48.598;15.650;2024-01-07T05:22:41;8.88;;;5.90;;
59193;SDS011;44967;48.598;15.650;2024-01-07T05:25:07;8.98;;;6.00;;
59193;SDS011;44967;48.598;15.650;2024-01-07T05:27:33;6.90;;;5.35;;
59193;SDS011;44967;48.598;15.650;2024-01-07T05:29:58;10.13;;;5.80;;
59193;SDS011;44967;48.598;15.650;2024-01-07T05:32:24;9.60;;;5.88;;
59193;SDS011;44967;48.598;15.650;2024-01-07T05:34:50;8.93;;;5.65;;
59193;SDS011;44967;48.598;15.650;2024-01-07T05:37:15;9.40;;;6.28;;
59193;SDS011;44967;48.598;15.650;2024-01-07T05:39:41;9.63;;;6.07;;
59193;SDS011;44967;48.598;15.650;2024-01-07T05:42:07;9.52;;;6.10;;
59193;SDS011;44967;48.598;15.650;2024-01-07T05:44:33;8.85;;;5.78;;
59193;SDS011;44967;48.598;15.650;2024-01-07T05:46:59;9.95;;;5.78;;
59193;SDS011;44967;48.598;15.650;2024-01-07T05:49:25;8.13;;;5.53;;
59193;SDS011;44967;48.598;15.650;2024-01-07T05:51:50;9.02;;;5.90;;
59193;SDS011;44967;48.598;15.650;2024-01-07T05:54:16;9.05;;;6.25;;
59193;SDS011;44967;48.598;15.650;2024-01-07T05:56:42;8.32;;;5.40;;
59193;SDS011;44967;48.598;15.650;2024-01-07T05:59:08;7.38;;;5.30;;
59193;SDS011;44967;48.598;15.650;2024-01-07T06:01:33;7.72;;;5.43;;
59193;SDS011;44967;48.598;15.650;2024-01-07T06:04:00;6.85;;;5.18;;
59193;SDS011;44967;48.598;15.650;2024-01-07T06:06:25;7.07;;;4.88;;
59193;SDS011;44967;48.598;15.650;2024-01-07T06:08:51;7.78;;;4.72;;
59193;SDS011;44967;48.598;15.650;2024-01-07T06:11:17;5.95;;;4.63;;
59193;SDS011;44967;48.598;15.650;2024-01-07T06:13:45;7.93;;;4.47;;
59193;SDS011;44967;48.598;15.650;2024-01-07T06:16:12;5.20;;;4.47;;
59193;SDS011;44967;48.598;15.650;2024-01-07T06:18:38;9.00;;;5.07;;
59193;SDS011;44967;48.598;15.650;2024-01-07T06:21:04;7.85;;;5.28;;
59193;SDS011;44967;48.598;15.650;2024-01-07T06:23:32;9.50;;;5.72;;
59193;SDS011;44967;48.598;15.650;2024-01-07T06:25:58;9.27;;;6.32;;
59193;SDS011;44967;48.598;15.650;2024-01-07T06:28:24;7.13;;;4.50;;
59193;SDS011;44967;48.598;15.650;2024-01-07T06:30:50;8.75;;;4.78;;
59193;SDS011;44967;48.598;15.650;2024-01-07T06:33:16;7.75;;;4.70;;
59193;SDS011;44967;48.598;15.650;2024-01-07T06:35:42;7.10;;;4.35;;
59193;SDS011;44967;48.598;15.650;2024-01-07T06:38:08;5.22;;;3.83;;
59193;SDS011;44967;48.598;15.650;2024-01-07T06:40:33;6.57;;;4.30;;
59193;SDS011;44967;48.598;15.650;2024-01-07T06:42:59;6.63;;;4.18;;
59193;SDS011;44967;48.598;15.650;2024-01-07T06:45:25;5.70;;;3.53;;
59193;SDS011;44967;48.598;15.650;2024-01-07T06:47:51;7.05;;;3.97;;
59193;SDS011;44967;48.598;15.650;2024-01-07T06:50:18;6.20;;;3.92;;
59193;SDS011;44967;48.598;15.650;2024-01-07T06:52:46;5.85;;;4.60;;
59193;SDS011;44967;48.598;15.650;2024-01-07T06:55:11;7.05;;;4.20;;
59193;SDS011;44967;48.598;15.650;2024-01-07T06:57:37;4.82;;;4.00;;
59193;SDS011;44967;48.598;15.650;2024-01-07T07:00:03;8.15;;;4.25;;
59193;SDS011;44967;48.598;15.650;2024-01-07T07:02:30;5.65;;;3.90;;
59193;SDS011;44967;48.598;15.650;2024-01-07T07:04:55;5.75;;;3.97;;
59193;SDS011;44967;48.598;15.650;2024-01-07T07:07:21;5.15;;;4.03;;
59193;SDS011;44967;48.598;15.650;2024-01-07T07:09:46;4.93;;;3.92;;
59193;SDS011;44967;48.598;15.650;2024-01-07T07:12:12;6.43;;;4.00;;
59193;SDS011;44967;48.598;15.650;2024-01-07T07:14:38;6.93;;;4.22;;
59193;SDS011;44967;48.598;15.650;2024-01-07T07:17:04;6.07;;;3.90;;
59193;SDS011;44967;48.598;15.650;2024-01-07T07:19:29;6.22;;;4.20;;
59193;SDS011;44967;48.598;15.650;2024-01-07T07:21:55;6.85;;;3.72;;
59193;SDS011;44967;48.598;15.650;2024-01-07T07:24:21;5.82;;;4.18;;
59193;SDS011;44967;48.598;15.650;2024-01-07T07:26:47;6.57;;;4.45;;
59193;SDS011;44967;48.598;15.650;2024-01-07T07:29:13;6.68;;;4.65;;
59193;SDS011;44967;48.598;15.650;2024-01-07T07:31:38;9.05;;;4.97;;
59193;SDS011;44967;48.598;15.650;2024-01-07T07:34:04;6.03;;;4.35;;
59193;SDS011;44967;48.598;15.650;2024-01-07T07:36:30;7.63;;;4.30;;
59193;SDS011;44967;48.598;15.650;2024-01-07T07:38:56;7.20;;;4.50;;
59193;SDS011;44967;48.598;15.650;2024-01-07T07:41:22;8.15;;;4.70;;
59193;SDS011;44967;48.598;15.650;2024-01-07T07:43:48;8.52;;;4.85;;
59193;SDS011;44967;48.598;15.650;2024-01-07T07:46:14;6.80;;;4.03;;
59193;SDS011;44967;48.598;15.650;2024-01-07T07:48:41;10.15;;;5.32;;
59193;SDS011;44967;48.598;15.650;2024-01-07T07:51:07;7.97;;;4.72;;
59193;SDS011;44967;48.598;15.650;2024-01-07T07:53:33;6.85;;;4.95;;
59193;SDS011;44967;48.598;15.650;2024-01-07T07:55:59;8.48;;;5.32;;
59193;SDS011;44967;48.598;15.650;2024-01-07T07:58:26;7.60;;;5.43;;
59193;SDS011;44967;48.598;15.650;2024-01-07T08:00:51;8.93;;;5.65;;
59193;SDS011;44967;48.598;15.650;2024-01-07T08:03:17;8.10;;;5.22;;
59193;SDS011;44967;48.598;15.650;2024-01-07T08:05:43;10.07;;;6.10;;
59193;SDS011;44967;48.598;15.650;2024-01-07T08:08:09;8.68;;;5.10;;
59193;SDS011;44967;48.598;15.650;2024-01-07T08:10:35;11.25;;;5.47;;
59193;SDS011;44967;48.598;15.650;2024-01-07T08:13:01;7.82;;;5.30;;
59193;SDS011;44967;48.598;15.650;2024-01-07T08:15:27;9.00;;;5.75;;
59193;SDS011;44967;48.598;15.650;2024-01-07T08:17:52;10.88;;;6.47;;
59193;SDS011;44967;48.598;15.650;2024-01-07T08:20:18;9.77;;;6.07;;
59193;SDS011;44967;48.598;15.650;2024-01-07T08:22:44;9.55;;;5.82;;
59193;SDS011;44967;48.598;15.650;2024-01-07T08:25:10;9.57;;;6.22;;
59193;SDS011;44967;48.598;15.650;2024-01-07T08:27:36;9.88;;;6.43;;
59193;SDS011;44967;48.598;15.650;2024-01-07T08:30:03;10.23;;;5.95;;
59193;SDS011;44967;48.598;15.650;2024-01-07T08:32:29;8.57;;;5.50;;
59193;SDS011;44967;48.598;15.650;2024-01-07T08:34:55;6.70;;;5.50;;
59193;SDS011;44967;48.598;15.650;2024-01-07T08:37:20;9.73;;;5.82;;
59193;SDS011;44967;48.598;15.650;2024-01-07T08:39:46;10.05;;;6.68;;
59193;SDS011;44967;48.598;15.650;2024-01-07T08:42:12;10.35;;;6.03;;
59193;SDS011;44967;48.598;15.650;2024-01-07T08:44:38;16.60;;;9.55;;
59193;SDS011;44967;48.598;15.650;2024-01-07T08:47:04;12.40;;;7.25;;
59193;SDS011;44967;48.598;15.650;2024-01-07T08:49:30;10.38;;;6.43;;
59193;SDS011;44967;48.598;15.650;2024-01-07T08:52:00;8.82;;;5.93;;
59193;SDS011;44967;48.598;15.650;2024-01-07T08:54:26;9.90;;;6.70;;
59193;SDS011;44967;48.598;15.650;2024-01-07T08:56:51;10.02;;;5.70;;
59193;SDS011;44967;48.598;15.650;2024-01-07T08:59:17;10.07;;;6.22;;
59193;SDS011;44967;48.598;15.650;2024-01-07T09:01:42;11.30;;;6.30;;
59193;SDS011;44967;48.598;15.650;2024-01-07T09:04:08;9.75;;;6.25;;
59193;SDS011;44967;48.598;15.650;2024-01-07T09:06:34;15.20;;;7.57;;
59193;SDS011;44967;48.598;15.650;2024-01-07T09:08:59;10.02;;;6.05;;
59193;SDS011;44967;48.598;15.650;2024-01-07T09:11:25;11.60;;;7.22;;
59193;SDS011;44967;48.598;15.650;2024-01-07T09:13:51;8.88;;;6.10;;
59193;SDS011;44967;48.598;15.650;2024-01-07T09:16:16;11.15;;;5.68;;
59193;SDS011;44967;48.598;15.650;2024-01-07T09:18:42;10.60;;;6.15;;
59193;SDS011;44967;48.598;15.650;2024-01-07T09:21:11;10.30;;;6.18;;
59193;SDS011;44967;48.598;15.650;2024-01-07T09:23:37;9.20;;;5.30;;
59193;SDS011;44967;48.598;15.650;2024-01-07T09:26:03;10.00;;;5.70;;
59193;SDS011;44967;48.598;15.650;2024-01-07T09:28:29;10.20;;;6.18;;
59193;SDS011;44967;48.598;15.650;2024-01-07T09:30:55;9.32;;;5.65;;
59193;SDS011;44967;48.598;15.650;2024-01-07T09:33:20;10.20;;;6.53;;
59193;SDS011;44967;48.598;15.650;2024-01-07T09:35:51;11.48;;;6.28;;
59193;SDS011;44967;48.598;15.650;2024-01-07T09:38:19;7.93;;;5.85;;
59193;SDS011;44967;48.598;15.650;2024-01-07T09:40:45;8.60;;;5.53;;
59193;SDS011;44967;48.598;15.650;2024-01-07T09:43:11;11.68;;;6.22;;
59193;SDS011;44967;48.598;15.650;2024-01-07T09:45:38;9.93;;;5.72;;
59193;SDS011;44967;48.598;15.650;2024-01-07T09:48:06;10.80;;;6.10;;
59193;SDS011;44967;48.598;15.650;2024-01-07T09:50:32;10.13;;;5.82;;
59193;SDS011;44967;48.598;15.650;2024-01-07T09:52:58;9.50;;;6.05;;
59193;SDS011;44967;48.598;15.650;2024-01-07T09:55:34;9.98;;;5.60;;
59193;SDS011;44967;48.598;15.650;2024-01-07T09:58:05;8.73;;;5.85;;
59193;SDS011;44967;48.598;15.650;2024-01-07T10:00:31;8.80;;;5.35;;
59193;SDS011;44967;48.598;15.650;2024-01-07T10:02:57;10.35;;;5.70;;
59193;SDS011;44967;48.598;15.650;2024-01-07T10:05:23;11.00;;;5.28;;
59193;SDS011;44967;48.598;15.650;2024-01-07T10:07:48;8.80;;;5.22;;
59193;SDS011;44967;48.598;15.650;2024-01-07T10:10:14;8.13;;;5.38;;
59193;SDS011;44967;48.598;15.650;2024-01-07T10:12:41;9.88;;;5.70;;
59193;SDS011;44967;48.598;15.650;2024-01-07T10:15:06;9.85;;;5.97;;
59193;SDS011;44967;48.598;15.650;2024-01-07T10:17:33;9.15;;;5.03;;
59193;SDS011;44967;48.598;15.650;2024-01-07T10:19:58;10.77;;;5.78;;
59193;SDS011;44967;48.598;15.650;2024-01-07T10:22:24;8.05;;;5.40;;
59193;SDS011;44967;48.598;15.650;2024-01-07T10:24:51;8.05;;;5.20;;
59193;SDS011;44967;48.598;15.650;2024-01-07T10:27:17;9.85;;;5.30;;
59193;SDS011;44967;48.598;15.650;2024-01-07T10:29:42;9.05;;;5.97;;
59193;SDS011;44967;48.598;15.650;2024-01-07T10:32:08;9.65;;;5.85;;
59193;SDS011;44967;48.598;15.650;2024-01-07T10:34:35;9.73;;;6.20;;
59193;SDS011;44967;48.598;15.650;2024-01-07T10:37:01;11.88;;;6.68;;
59193;SDS011;44967;48.598;15.650;2024-01-07T10:39:30;9.73;;;5.63;;
59193;SDS011;44967;48.598;15.650;2024-01-07T10:41:56;8.10;;;5.18;;
59193;SDS011;44967;48.598;15.650;2024-01-07T10:44:29;7.45;;;5.03;;
59193;SDS011;44967;48.598;15.650;2024-01-07T10:46:56;9.63;;;5.40;;
59193;SDS011;44967;48.598;15.650;2024-01-07T10:49:24;8.05;;;5.00;;
59193;SDS011;44967;48.598;15.650;2024-01-07T10:52:07;10.20;;;5.25;;
59193;SDS011;44967;48.598;15.650;2024-01-07T10:54:34;9.02;;;4.97;;
59193;SDS011;44967;48.598;15.650;2024-01-07T10:57:13;7.32;;;5.13;;
59193;SDS011;44967;48.598;15.650;2024-01-07T11:02:12;7.82;;;4.55;;
59193;SDS011;44967;48.598;15.650;2024-01-07T11:04:51;7.85;;;5.10;;
59193;SDS011;44967;48.598;15.650;2024-01-07T11:07:34;11.65;;;5.50;;
59193;SDS011;44967;48.598;15.650;2024-01-07T11:10:20;10.45;;;6.35;;
59193;SDS011;44967;48.598;15.650;2024-01-07T11:12:54;9.65;;;5.35;;
59193;SDS011;44967;48.598;15.650;2024-01-07T11:18:23;9.75;;;5.70;;
59193;SDS011;44967;48.598;15.650;2024-01-07T11:20:49;9.32;;;5.78;;
59193;SDS011;44967;48.598;15.650;2024-01-07T11:23:28;7.53;;;5.25;;
59193;SDS011;44967;48.598;15.650;2024-01-07T11:26:08;9.50;;;5.95;;
59193;SDS011;44967;48.598;15.650;2024-01-07T11:28:50;9.88;;;5.68;;
59193;SDS011;44967;48.598;15.650;2024-01-07T11:31:18;8.57;;;5.93;;
59193;SDS011;44967;48.598;15.650;2024-01-07T11:33:46;8.10;;;6.45;;
59193;SDS011;44967;48.598;15.650;2024-01-07T11:36:16;9.63;;;6.15;;
59193;SDS011;44967;48.598;15.650;2024-01-07T11:38:44;9.80;;;5.45;;
59193;SDS011;44967;48.598;15.650;2024-01-07T11:41:13;10.15;;;5.95;;
59193;SDS011;44967;48.598;15.650;2024-01-07T11:43:55;8.20;;;5.25;;
59193;SDS011;44967;48.598;15.650;2024-01-07T11:46:24;8.50;;;5.55;;
59193;SDS011;44967;48.598;15.650;2024-01-07T11:48:52;10.07;;;5.72;;
59193;SDS011;44967;48.598;15.650;2024-01-07T11:51:27;10.95;;;6.20;;
59193;SDS011;44967;48.598;15.650;2024-01-07T11:53:54;7.03;;;5.60;;
59193;SDS011;44967;48.598;15.650;2024-01-07T11:56:19;11.95;;;5.95;;
59193;SDS011;44967;48.598;15.650;2024-01-07T11:58:45;10.68;;;5.65;;
59193;SDS011;44967;48.598;15.650;2024-01-07T12:01:11;9.70;;;5.85;;
59193;SDS011;44967;48.598;15.650;2024-01-07T12:03:39;11.55;;;6.60;;
59193;SDS011;44967;48.598;15.650;2024-01-07T12:06:06;12.27;;;6.30;;
59193;SDS011;44967;48.598;15.650;2024-01-07T12:08:32;10.73;;;6.50;;
59193;SDS011;44967;48.598;15.650;2024-01-07T12:10:59;8.80;;;6.38;;
59193;SDS011;44967;48.598;15.650;2024-01-07T12:13:25;8.95;;;5.88;;
59193;SDS011;44967;48.598;15.650;2024-01-07T12:15:51;7.45;;;5.80;;
59193;SDS011;44967;48.598;15.650;2024-01-07T12:18:17;9.32;;;6.32;;
59193;SDS011;44967;48.598;15.650;2024-01-07T12:20:54;9.77;;;6.25;;
59193;SDS011;44967;48.598;15.650;2024-01-07T12:23:23;9.70;;;6.07;;
59193;SDS011;44967;48.598;15.650;2024-01-07T12:25:49;12.60;;;6.85;;
59193;SDS011;44967;48.598;15.650;2024-01-07T12:28:16;17.75;;;6.35;;
59193;SDS011;44967;48.598;15.650;2024-01-07T12:30:44;10.32;;;6.30;;
59193;SDS011;44967;48.598;15.650;2024-01-07T12:33:09;9.77;;;5.65;;
59193;SDS011;44967;48.598;15.650;2024-01-07T12:35:35;7.43;;;5.25;;
59193;SDS011;44967;48.598;15.650;2024-01-07T12:38:02;11.52;;;6.13;;
59193;SDS011;44967;48.598;15.650;2024-01-07T12:40:28;9.25;;;5.57;;
59193;SDS011;44967;48.598;15.650;2024-01-07T12:42:53;12.45;;;6.85;;
59193;SDS011;44967;48.598;15.650;2024-01-07T12:45:19;11.27;;;6.05;;
59193;SDS011;44967;48.598;15.650;2024-01-07T12:47:45;10.20;;;6.53;;
59193;SDS011;44967;48.598;15.650;2024-01-07T12:50:12;7.53;;;5.43;;
59193;SDS011;44967;48.598;15.650;2024-01-07T12:52:39;10.63;;;6.70;;
59193;SDS011;44967;48.598;15.650;2024-01-07T12:55:06;10.73;;;6.13;;
59193;SDS011;44967;48.598;15.650;2024-01-07T12:57:32;9.95;;;6.68;;
59193;SDS011;44967;48.598;15.650;2024-01-07T12:59:58;11.23;;;5.60;;
59193;SDS011;44967;48.598;15.650;2024-01-07T13:02:24;9.52;;;6.38;;
59193;SDS011;44967;48.598;15.650;2024-01-07T13:04:50;10.48;;;6.32;;
59193;SDS011;44967;48.598;15.650;2024-01-07T13:07:16;10.88;;;5.85;;
59193;SDS011;44967;48.598;15.650;2024-01-07T13:09:42;7.95;;;6.18;;
59193;SDS011;44967;48.598;15.650;2024-01-07T13:12:10;9.07;;;5.78;;
59193;SDS011;44967;48.598;15.650;2024-01-07T13:14:36;11.73;;;5.88;;
59193;SDS011;44967;48.598;15.650;2024-01-07T13:17:02;11.02;;;5.90;;
59193;SDS011;44967;48.598;15.650;2024-01-07T13:19:28;9.18;;;5.60;;
59193;SDS011;44967;48.598;15.650;2024-01-07T13:21:55;9.82;;;5.38;;
59193;SDS011;44967;48.598;15.650;2024-01-07T13:24:23;10.65;;;5.45;;
59193;SDS011;44967;48.598;15.650;2024-01-07T13:26:49;7.82;;;5.88;;
59193;SDS011;44967;48.598;15.650;2024-01-07T13:29:15;8.85;;;5.65;;
59193;SDS011;44967;48.598;15.650;2024-01-07T13:31:40;6.60;;;5.57;;
59193;SDS011;44967;48.598;15.650;2024-01-07T13:34:06;8.23;;;5.43;;
59193;SDS011;44967;48.598;15.650;2024-01-07T13:36:32;9.05;;;5.80;;
59193;SDS011;44967;48.598;15.650;2024-01-07T13:38:57;11.25;;;6.15;;
59193;SDS011;44967;48.598;15.650;2024-01-07T13:41:23;8.95;;;5.57;;
59193;SDS011;44967;48.598;15.650;2024-01-07T13:43:49;8.40;;;5.07;;
59193;SDS011;44967;48.598;15.650;2024-01-07T13:46:15;8.13;;;5.35;;
59193;SDS011;44967;48.598;15.650;2024-01-07T13:48:40;8.30;;;5.93;;
59193;SDS011;44967;48.598;15.650;2024-01-07T13:51:09;6.82;;;4.85;;
59193;SDS011;44967;48.598;15.650;2024-01-07T13:53:35;7.70;;;5.55;;
59193;SDS011;44967;48.598;15.650;2024-01-07T13:56:00;10.13;;;5.50;;
59193;SDS011;44967;48.598;15.650;2024-01-07T13:58:26;7.13;;;4.60;;
59193;SDS011;44967;48.598;15.650;2024-01-07T14:00:52;6.50;;;5.00;;
59193;SDS011;44967;48.598;15.650;2024-01-07T14:03:17;7.82;;;4.95;;
59193;SDS011;44967;48.598;15.650;2024-01-07T14:05:45;6.88;;;4.85;;
59193;SDS011;44967;48.598;15.650;2024-01-07T14:08:11;7.60;;;5.35;;
59193;SDS011;44967;48.598;15.650;2024-01-07T14:10:37;6.88;;;4.82;;
59193;SDS011;44967;48.598;15.650;2024-01-07T14:13:03;10.52;;;4.97;;
59193;SDS011;44967;48.598;15.650;2024-01-07T14:15:29;8.90;;;5.38;;
59193;SDS011;44967;48.598;15.650;2024-01-07T14:17:55;8.20;;;5.85;;
59193;SDS011;44967;48.598;15.650;2024-01-07T14:20:21;8.50;;;5.40;;
59193;SDS011;44967;48.598;15.650;2024-01-07T14:22:47;9.38;;;5.57;;
59193;SDS011;44967;48.598;15.650;2024-01-07T14:25:12;9.00;;;5.40;;
59193;SDS011;44967;48.598;15.650;2024-01-07T14:27:39;9.32;;;5.80;;
59193;SDS011;44967;48.598;15.650;2024-01-07T14:30:05;8.82;;;5.55;;
59193;SDS011;44967;48.598;15.650;2024-01-07T14:32:32;10.55;;;5.93;;